Time;durP1;ratioP1;P1;durP2;ratioP2;P2;SDS_P1;SDS_P2;PMS_P1;PMS_P2;Temp;Humidity;BMP_temperature;BMP_pressure;BME280_temperature;BME280_humidity;BME280_pressure;Samples;Min_cycle;Max_cycle;Signal;HPM_P1;HPM_P2
2021/06/23 00:00:44;;;;;;;9.02;8.00;;;;;;;;;;5071149;28;20012;-54
2021/06/23 00:03:09;;;;;;;8.90;8.10;;;;;;;;;;5084823;28;20028;-55
2021/06/23 00:05:35;;;;;;;10.13;9.23;;;;;;;;;;5087359;28;20030;-56
2021/06/23 00:08:00;;;;;;;10.35;9.45;;;;;;;;;;5086127;28;20039;-57
2021/06/23 00:10:25;;;;;;;9.95;8.98;;;;;;;;;;5090692;28;20051;-57
2021/06/23 00:12:50;;;;;;;11.77;10.70;;;;;;;;;;5090384;28;20059;-53
2021/06/23 00:15:18;;;;;;;9.98;9.10;;;;;;;;;;5092922;28;20081;-56
2021/06/23 00:17:43;;;;;;;9.07;8.38;;;;;;;;;;5090990;28;20019;-52
2021/06/23 00:20:09;;;;;;;9.73;8.55;;;;;;;;;;5092069;28;20391;-54
2021/06/23 00:22:34;;;;;;;10.00;9.13;;;;;;;;;;5079069;28;20058;-55
2021/06/23 00:24:59;;;;;;;11.25;10.27;;;;;;;;;;5085433;28;20055;-54
2021/06/23 00:27:25;;;;;;;9.43;8.52;;;;;;;;;;5091540;28;20032;-56
2021/06/23 00:29:50;;;;;;;9.50;8.70;;;;;;;;;;5086579;28;20050;-53
2021/06/23 00:32:18;;;;;;;8.90;8.10;;;;;;;;;;5084683;28;20051;-55
2021/06/23 00:34:43;;;;;;;9.23;7.68;;;;;;;;;;5072529;28;20111;-54
2021/06/23 00:37:08;;;;;;;8.32;7.05;;;;;;;;;;5077688;28;20478;-55
2021/06/23 00:39:33;;;;;;;8.77;6.88;;;;;;;;;;5072580;28;20526;-56
2021/06/23 00:41:59;;;;;;;7.53;6.80;;;;;;;;;;5083561;28;20419;-56
2021/06/23 00:44:24;;;;;;;7.63;7.03;;;;;;;;;;5083669;28;20020;-56
2021/06/23 00:46:50;;;;;;;7.75;6.88;;;;;;;;;;5082517;28;20031;-57
2021/06/23 00:49:15;;;;;;;6.95;6.32;;;;;;;;;;5076119;28;20021;-56
2021/06/23 00:51:40;;;;;;;7.32;6.15;;;;;;;;;;5073216;28;20459;-57
2021/06/23 00:54:10;;;;;;;6.30;4.95;;;;;;;;;;5087475;28;20058;-55
2021/06/23 00:56:36;;;;;;;6.28;5.57;;;;;;;;;;5091067;28;20355;-53
2021/06/23 00:59:01;;;;;;;8.75;5.82;;;;;;;;;;5089315;28;20020;-55
2021/06/23 01:01:29;;;;;;;9.23;5.97;;;;;;;;;;5085634;28;20444;-53
2021/06/23 01:03:54;;;;;;;6.03;5.35;;;;;;;;;;5079441;28;20024;-56
2021/06/23 01:06:19;;;;;;;8.27;5.82;;;;;;;;;;5080217;28;20043;-57
2021/06/23 01:08:45;;;;;;;5.53;5.03;;;;;;;;;;5083927;28;20525;-55
2021/06/23 01:11:10;;;;;;;8.15;4.80;;;;;;;;;;5069277;28;20024;-56
2021/06/23 01:13:49;;;;;;;7.13;5.10;;;;;;;;;;5080252;28;20035;-56
2021/06/23 01:16:15;;;;;;;5.00;4.50;;;;;;;;;;5091497;28;20447;-55
2021/06/23 01:18:41;;;;;;;5.32;4.82;;;;;;;;;;5091450;28;20021;-55
2021/06/23 01:21:07;;;;;;;5.55;4.75;;;;;;;;;;5088779;28;20028;-56
2021/06/23 01:23:32;;;;;;;6.43;4.82;;;;;;;;;;5087972;28;20456;-55
2021/06/23 01:25:58;;;;;;;5.43;4.93;;;;;;;;;;5084364;28;20032;-56
2021/06/23 01:28:23;;;;;;;8.38;5.03;;;;;;;;;;5086606;28;20016;-56
2021/06/23 01:30:48;;;;;;;6.68;5.30;;;;;;;;;;5085641;28;20103;-55
2021/06/23 01:33:14;;;;;;;5.10;4.53;;;;;;;;;;5074588;28;20101;-54
2021/06/23 01:35:40;;;;;;;5.97;5.05;;;;;;;;;;5075284;28;20062;-56
2021/06/23 01:38:06;;;;;;;6.32;4.65;;;;;;;;;;5095471;28;20020;-55
2021/06/23 01:40:31;;;;;;;4.80;4.32;;;;;;;;;;5087661;28;20032;-56
2021/06/23 01:42:56;;;;;;;7.90;5.68;;;;;;;;;;5090996;28;20048;-56
2021/06/23 01:45:22;;;;;;;7.13;5.72;;;;;;;;;;5086081;28;20017;-57
2021/06/23 01:47:47;;;;;;;6.80;5.43;;;;;;;;;;5085263;28;20091;-57
2021/06/23 01:50:13;;;;;;;6.45;5.43;;;;;;;;;;5092493;28;20411;-56
2021/06/23 01:52:41;;;;;;;6.57;5.57;;;;;;;;;;5092185;28;20020;-55
2021/06/23 01:55:07;;;;;;;6.35;5.70;;;;;;;;;;5093169;28;20027;-56
2021/06/23 01:57:39;;;;;;;5.60;5.10;;;;;;;;;;5093596;28;20024;-55
2021/06/23 02:00:06;;;;;;;7.53;4.80;;;;;;;;;;5077241;28;20059;-53
2021/06/23 02:02:34;;;;;;;6.60;5.28;;;;;;;;;;5090398;28;20044;-52
2021/06/23 02:05:08;;;;;;;6.10;5.13;;;;;;;;;;5095538;28;20016;-54
2021/06/23 02:07:33;;;;;;;6.40;5.15;;;;;;;;;;5082280;28;20025;-55
2021/06/23 02:10:18;;;;;;;8.23;5.30;;;;;;;;;;5094152;28;20099;-54
2021/06/23 02:13:03;;;;;;;7.38;5.45;;;;;;;;;;5052434;28;20048;-56
2021/06/23 02:15:28;;;;;;;7.25;5.88;;;;;;;;;;5087813;28;20035;-54
2021/06/23 02:17:54;;;;;;;7.75;5.88;;;;;;;;;;5081425;28;20028;-55
2021/06/23 02:20:20;;;;;;;6.82;5.43;;;;;;;;;;5075450;28;20023;-54
2021/06/23 02:22:45;;;;;;;6.18;5.10;;;;;;;;;;5092043;28;20020;-53
2021/06/23 02:25:11;;;;;;;5.57;4.97;;;;;;;;;;5076390;28;20013;-55
2021/06/23 02:27:40;;;;;;;7.30;5.30;;;;;;;;;;5075551;28;20017;-54
2021/06/23 02:30:06;;;;;;;6.57;5.97;;;;;;;;;;5075289;28;20036;-56
2021/06/23 02:32:33;;;;;;;11.63;6.32;;;;;;;;;;5081463;28;20016;-54
2021/06/23 02:34:58;;;;;;;7.22;5.97;;;;;;;;;;5081662;28;20051;-55
2021/06/23 02:37:24;;;;;;;9.65;6.63;;;;;;;;;;5079405;28;20078;-56
2021/06/23 02:39:49;;;;;;;9.57;7.45;;;;;;;;;;5088982;28;20091;-54
2021/06/23 02:42:15;;;;;;;9.80;7.18;;;;;;;;;;5075316;28;20027;-56
2021/06/23 02:44:40;;;;;;;12.35;7.75;;;;;;;;;;5074898;28;20400;-56
2021/06/23 02:47:06;;;;;;;10.65;7.43;;;;;;;;;;5081600;28;20572;-54
2021/06/23 02:49:32;;;;;;;10.45;6.97;;;;;;;;;;5082161;28;20033;-56
2021/06/23 02:51:58;;;;;;;7.47;6.45;;;;;;;;;;5076626;28;20034;-56
2021/06/23 02:54:24;;;;;;;8.85;6.43;;;;;;;;;;5078926;28;20018;-56
2021/06/23 02:56:50;;;;;;;10.98;7.00;;;;;;;;;;5092218;28;20031;-54
2021/06/23 02:59:15;;;;;;;7.72;6.55;;;;;;;;;;5094735;28;20467;-54
2021/06/23 03:01:40;;;;;;;7.60;6.93;;;;;;;;;;5086433;28;20043;-55
2021/06/23 03:04:06;;;;;;;8.27;7.03;;;;;;;;;;5075113;28;20099;-53
2021/06/23 03:06:31;;;;;;;8.73;6.93;;;;;;;;;;5074338;28;20032;-54
2021/06/23 03:08:56;;;;;;;9.35;6.53;;;;;;;;;;5085079;28;20032;-56
2021/06/23 03:11:21;;;;;;;8.68;6.93;;;;;;;;;;5079538;28;20024;-56
2021/06/23 03:13:47;;;;;;;8.05;7.40;;;;;;;;;;5074284;28;20594;-54
2021/06/23 03:16:12;;;;;;;9.25;5.88;;;;;;;;;;5073862;28;20036;-56
2021/06/23 03:18:38;;;;;;;7.13;6.20;;;;;;;;;;5076392;28;20137;-56
2021/06/23 03:21:06;;;;;;;6.93;6.30;;;;;;;;;;5085760;28;20024;-54
2021/06/23 03:23:32;;;;;;;6.45;5.88;;;;;;;;;;5078156;28;20469;-55
2021/06/23 03:25:57;;;;;;;9.68;5.95;;;;;;;;;;5074260;28;20056;-56
2021/06/23 03:28:22;;;;;;;6.95;6.18;;;;;;;;;;5074201;28;20491;-56
2021/06/23 03:30:47;;;;;;;6.60;5.93;;;;;;;;;;5074930;28;20655;-54
2021/06/23 03:33:13;;;;;;;8.25;5.80;;;;;;;;;;5074931;28;20033;-55
2021/06/23 03:35:38;;;;;;;7.38;5.55;;;;;;;;;;5074774;28;20468;-55
2021/06/23 03:38:03;;;;;;;7.07;6.38;;;;;;;;;;5076528;28;20016;-55
2021/06/23 03:40:29;;;;;;;9.05;6.35;;;;;;;;;;5079433;28;20448;-54
2021/06/23 03:42:54;;;;;;;7.00;5.70;;;;;;;;;;5084087;28;20024;-55
2021/06/23 03:45:19;;;;;;;9.80;5.57;;;;;;;;;;5082179;28;20015;-55
2021/06/23 03:47:45;;;;;;;7.95;5.88;;;;;;;;;;5089649;28;20098;-56
2021/06/23 03:50:12;;;;;;;7.20;5.63;;;;;;;;;;5088039;28;20024;-57
2021/06/23 03:52:37;;;;;;;6.68;4.68;;;;;;;;;;5074715;28;20463;-54
2021/06/23 03:55:04;;;;;;;7.15;5.32;;;;;;;;;;5081364;28;20042;-55
2021/06/23 03:57:29;;;;;;;7.63;5.25;;;;;;;;;;5082664;28;20368;-54
2021/06/23 03:59:54;;;;;;;5.22;4.72;;;;;;;;;;5075554;28;20047;-55
2021/06/23 04:02:20;;;;;;;6.63;5.00;;;;;;;;;;5070407;28;20056;-55
2021/06/23 04:04:46;;;;;;;7.40;5.22;;;;;;;;;;5071985;28;20027;-54
2021/06/23 04:07:12;;;;;;;5.80;5.00;;;;;;;;;;5083709;28;20029;-52
2021/06/23 04:09:37;;;;;;;5.47;4.70;;;;;;;;;;5090943;28;20028;-57
2021/06/23 04:12:03;;;;;;;6.63;5.18;;;;;;;;;;5089405;28;20035;-56
2021/06/23 04:14:28;;;;;;;6.57;5.95;;;;;;;;;;5093129;28;20020;-56
2021/06/23 04:16:54;;;;;;;6.13;5.50;;;;;;;;;;5090388;28;20023;-56
2021/06/23 04:19:20;;;;;;;6.38;5.20;;;;;;;;;;5072517;28;20013;-55
2021/06/23 04:21:45;;;;;;;8.30;5.82;;;;;;;;;;5069984;28;20019;-57
2021/06/23 04:24:10;;;;;;;8.13;5.68;;;;;;;;;;5084861;28;20059;-53
2021/06/23 04:26:35;;;;;;;6.22;5.47;;;;;;;;;;5079138;28;20041;-56
2021/06/23 04:29:01;;;;;;;6.78;5.57;;;;;;;;;;5092144;28;20471;-57
2021/06/23 04:31:26;;;;;;;6.93;6.22;;;;;;;;;;5085336;28;20025;-56
2021/06/23 04:33:51;;;;;;;6.40;5.70;;;;;;;;;;5082451;28;20459;-56
2021/06/23 04:36:16;;;;;;;8.57;5.40;;;;;;;;;;5091296;28;20103;-56
2021/06/23 04:38:42;;;;;;;7.57;5.45;;;;;;;;;;5088088;28;20118;-55
2021/06/23 04:41:07;;;;;;;6.28;5.10;;;;;;;;;;5076187;28;20056;-57
2021/06/23 04:43:32;;;;;;;8.65;5.30;;;;;;;;;;5072654;28;20019;-56
2021/06/23 04:45:57;;;;;;;9.68;5.85;;;;;;;;;;5075370;28;20016;-55
2021/06/23 04:48:23;;;;;;;6.43;5.68;;;;;;;;;;5077106;28;20474;-56
2021/06/23 04:50:48;;;;;;;7.85;6.05;;;;;;;;;;5088841;28;20026;-55
2021/06/23 04:53:13;;;;;;;14.20;11.15;;;;;;;;;;5087625;28;20040;-56
2021/06/23 04:55:38;;;;;;;8.63;5.30;;;;;;;;;;5077698;28;20095;-55
2021/06/23 04:58:04;;;;;;;6.97;5.57;;;;;;;;;;5082361;28;20093;-57
2021/06/23 05:00:29;;;;;;;7.68;5.30;;;;;;;;;;5084797;28;20427;-58
2021/06/23 05:02:54;;;;;;;8.35;5.55;;;;;;;;;;5071647;28;20162;-55
2021/06/23 05:05:20;;;;;;;31.88;8.48;;;;;;;;;;5071842;28;20024;-55
2021/06/23 05:07:45;;;;;;;9.15;5.68;;;;;;;;;;5080624;28;20016;-54
2021/06/23 05:10:11;;;;;;;7.22;5.68;;;;;;;;;;5077780;28;20099;-56
2021/06/23 05:12:36;;;;;;;9.38;5.13;;;;;;;;;;5089253;28;20020;-56
2021/06/23 05:15:01;;;;;;;6.07;5.13;;;;;;;;;;5082418;28;20036;-56
2021/06/23 05:17:26;;;;;;;7.18;5.82;;;;;;;;;;5078496;28;20483;-56
2021/06/23 05:19:52;;;;;;;9.02;5.82;;;;;;;;;;5073796;28;20487;-57
2021/06/23 05:22:17;;;;;;;6.90;5.40;;;;;;;;;;5084278;28;20433;-57
2021/06/23 05:24:42;;;;;;;12.25;5.50;;;;;;;;;;5087779;28;20028;-53
2021/06/23 05:27:08;;;;;;;64.80;12.02;;;;;;;;;;5079550;28;20020;-53
2021/06/23 05:29:34;;;;;;;20.73;8.48;;;;;;;;;;5084896;28;20027;-54
2021/06/23 05:31:59;;;;;;;7.38;5.45;;;;;;;;;;5086128;28;20016;-55
2021/06/23 05:34:24;;;;;;;36.78;14.43;;;;;;;;;;5073377;28;20028;-56
2021/06/23 05:36:49;;;;;;;7.68;5.53;;;;;;;;;;5089218;28;20031;-54
2021/06/23 05:39:15;;;;;;;9.00;5.75;;;;;;;;;;5087403;28;20017;-55
2021/06/23 05:41:41;;;;;;;8.55;6.40;;;;;;;;;;5086244;28;20021;-53
2021/06/23 05:44:06;;;;;;;16.40;7.60;;;;;;;;;;5090725;28;20028;-57
2021/06/23 05:46:31;;;;;;;13.93;7.38;;;;;;;;;;5078650;28;20032;-55
2021/06/23 05:48:56;;;;;;;21.05;8.65;;;;;;;;;;5085482;28;20121;-55
2021/06/23 05:51:21;;;;;;;12.50;6.38;;;;;;;;;;5087277;28;20471;-56
2021/06/23 05:53:47;;;;;;;8.05;5.10;;;;;;;;;;5071673;28;20440;-55
2021/06/23 05:56:14;;;;;;;24.33;9.57;;;;;;;;;;5074153;28;20017;-55
2021/06/23 05:58:39;;;;;;;8.00;5.13;;;;;;;;;;5081897;28;20032;-56
2021/06/23 06:01:05;;;;;;;6.20;5.25;;;;;;;;;;5089545;28;20063;-55
2021/06/23 06:03:31;;;;;;;6.35;5.75;;;;;;;;;;5080911;28;20672;-55
2021/06/23 06:05:57;;;;;;;6.45;5.15;;;;;;;;;;5086414;28;20029;-55
2021/06/23 06:08:22;;;;;;;6.78;6.00;;;;;;;;;;5076227;28;20031;-55
2021/06/23 06:10:47;;;;;;;7.15;5.80;;;;;;;;;;5070475;28;20100;-56
2021/06/23 06:13:12;;;;;;;8.10;6.15;;;;;;;;;;5071767;28;20112;-54
2021/06/23 06:15:38;;;;;;;7.60;6.03;;;;;;;;;;5072414;28;20052;-53
2021/06/23 06:18:04;;;;;;;6.25;5.65;;;;;;;;;;5083172;28;20464;-54
2021/06/23 06:20:30;;;;;;;9.00;6.03;;;;;;;;;;5068898;28;20472;-55
2021/06/23 06:22:55;;;;;;;8.25;6.40;;;;;;;;;;5083338;28;20061;-55
2021/06/23 06:25:20;;;;;;;9.23;5.63;;;;;;;;;;5089884;28;20463;-54
2021/06/23 06:27:45;;;;;;;7.55;5.82;;;;;;;;;;5074973;28;20486;-54
2021/06/23 06:30:11;;;;;;;8.68;6.70;;;;;;;;;;5091340;28;20024;-52
2021/06/23 06:32:36;;;;;;;10.43;6.22;;;;;;;;;;5073859;28;20103;-57
2021/06/23 06:35:02;;;;;;;8.77;6.13;;;;;;;;;;5088416;28;20035;-55
2021/06/23 06:37:27;;;;;;;8.02;5.60;;;;;;;;;;5083129;28;20031;-55
2021/06/23 06:39:52;;;;;;;9.35;5.72;;;;;;;;;;5083639;28;20165;-54
2021/06/23 06:42:17;;;;;;;6.90;5.97;;;;;;;;;;5085135;28;20009;-54
2021/06/23 06:44:43;;;;;;;9.73;5.78;;;;;;;;;;5074755;28;20021;-54
2021/06/23 06:47:09;;;;;;;11.00;5.72;;;;;;;;;;5074867;28;20023;-54
2021/06/23 06:49:34;;;;;;;10.93;6.20;;;;;;;;;;5088148;28;20024;-54
2021/06/23 06:52:00;;;;;;;10.77;6.68;;;;;;;;;;5087101;28;20111;-52
2021/06/23 06:54:26;;;;;;;11.13;6.93;;;;;;;;;;5080083;28;20008;-54
2021/06/23 06:56:52;;;;;;;9.63;7.18;;;;;;;;;;5093403;28;20383;-56
2021/06/23 06:59:18;;;;;;;11.15;6.32;;;;;;;;;;5085784;28;20017;-56
2021/06/23 07:01:44;;;;;;;8.43;5.80;;;;;;;;;;5071593;28;20048;-56
2021/06/23 07:04:09;;;;;;;7.40;5.78;;;;;;;;;;5074606;28;20099;-55
2021/06/23 07:06:34;;;;;;;10.65;6.93;;;;;;;;;;5080477;28;20016;-53
2021/06/23 07:09:00;;;;;;;12.25;6.93;;;;;;;;;;5087293;28;20020;-53
2021/06/23 07:11:25;;;;;;;8.80;6.60;;;;;;;;;;5080907;28;20020;-55
2021/06/23 07:13:50;;;;;;;10.82;7.45;;;;;;;;;;5075053;28;20089;-54
2021/06/23 07:16:16;;;;;;;10.30;6.95;;;;;;;;;;5074731;28;20494;-56
2021/06/23 07:18:42;;;;;;;12.90;7.30;;;;;;;;;;5075445;28;20109;-54
2021/06/23 07:21:07;;;;;;;9.40;6.88;;;;;;;;;;5077667;28;20112;-53
2021/06/23 07:23:32;;;;;;;8.27;5.78;;;;;;;;;;5088970;28;20020;-53
2021/06/23 07:25:58;;;;;;;7.82;6.20;;;;;;;;;;5073837;28;20028;-55
2021/06/23 07:28:39;;;;;;;7.93;6.13;;;;;;;;;;5081464;28;20015;-54
2021/06/23 07:31:07;;;;;;;7.93;6.72;;;;;;;;;;5083595;28;20023;-55
2021/06/23 07:33:32;;;;;;;8.90;6.28;;;;;;;;;;5080319;28;20461;-53
2021/06/23 07:38:41;;;;;;;10.93;6.63;;;;;;;;;;5074835;28;20142;-52
2021/06/23 07:41:06;;;;;;;7.50;6.30;;;;;;;;;;5082768;28;20111;-53
2021/06/23 07:43:32;;;;;;;9.45;6.80;;;;;;;;;;5088647;28;20020;-51
2021/06/23 07:45:59;;;;;;;11.65;7.20;;;;;;;;;;5083913;28;20111;-51
2021/06/23 07:48:37;;;;;;;8.73;7.18;;;;;;;;;;5092717;28;20064;-55
2021/06/23 07:51:11;;;;;;;10.25;7.50;;;;;;;;;;5069467;28;20029;-55
2021/06/23 07:56:26;;;;;;;8.45;7.55;;;;;;;;;;5073186;28;20062;-55
2021/06/23 08:09:34;;;;;;;10.30;8.55;;;;;;;;;;5089720;28;20060;-56
2021/06/23 08:14:38;;;;;;;9.48;8.60;;;;;;;;;;5084129;28;20056;-55
2021/06/23 08:17:03;;;;;;;8.60;7.75;;;;;;;;;;5073342;28;20063;-57
2021/06/23 08:19:28;;;;;;;8.70;7.80;;;;;;;;;;5076943;28;20028;-56
2021/06/23 08:21:54;;;;;;;11.88;9.57;;;;;;;;;;5089336;28;20023;-54
2021/06/23 08:24:19;;;;;;;10.57;9.60;;;;;;;;;;5074728;28;20083;-53
2021/06/23 08:26:44;;;;;;;13.00;8.60;;;;;;;;;;5073010;28;20064;-53
2021/06/23 08:29:09;;;;;;;10.07;8.00;;;;;;;;;;5083750;28;20020;-56
2021/06/23 08:31:35;;;;;;;10.57;9.20;;;;;;;;;;5090548;28;20022;-54
2021/06/23 08:34:00;;;;;;;11.45;8.98;;;;;;;;;;5088871;28;20697;-56
2021/06/23 08:36:25;;;;;;;10.85;9.38;;;;;;;;;;5074926;28;20476;-55
2021/06/23 08:38:51;;;;;;;13.45;9.20;;;;;;;;;;5072509;28;20051;-56
2021/06/23 08:41:17;;;;;;;8.98;8.18;;;;;;;;;;5072447;28;20017;-56
2021/06/23 08:43:42;;;;;;;12.23;8.68;;;;;;;;;;5087368;28;20387;-54
2021/06/23 08:46:07;;;;;;;9.05;8.25;;;;;;;;;;5092777;28;20024;-56
2021/06/23 08:48:33;;;;;;;10.45;8.23;;;;;;;;;;5092355;28;20527;-56
2021/06/23 08:51:05;;;;;;;9.50;8.43;;;;;;;;;;5088769;28;20106;-56
2021/06/23 08:53:31;;;;;;;11.00;9.07;;;;;;;;;;5091396;28;20032;-57
2021/06/23 08:55:56;;;;;;;13.05;9.07;;;;;;;;;;5073891;28;20020;-56
2021/06/23 08:58:21;;;;;;;9.85;8.43;;;;;;;;;;5088144;28;20035;-54
2021/06/23 09:00:46;;;;;;;9.77;8.40;;;;;;;;;;5069110;28;20239;-56
2021/06/23 09:03:12;;;;;;;8.70;7.80;;;;;;;;;;5072316;28;20092;-56
2021/06/23 09:05:49;;;;;;;9.90;8.90;;;;;;;;;;5079578;28;20024;-54
2021/06/23 09:08:28;;;;;;;8.38;7.35;;;;;;;;;;5085795;28;20013;-55
2021/06/23 09:10:53;;;;;;;9.90;8.98;;;;;;;;;;5077735;28;20020;-54
2021/06/23 09:13:19;;;;;;;11.88;9.10;;;;;;;;;;5086386;28;20425;-56
2021/06/23 09:15:46;;;;;;;8.65;7.82;;;;;;;;;;5091725;28;20020;-54
2021/06/23 09:18:12;;;;;;;10.23;8.18;;;;;;;;;;5092158;28;20020;-53
2021/06/23 09:20:38;;;;;;;10.30;8.48;;;;;;;;;;5089104;28;20107;-53
2021/06/23 09:23:03;;;;;;;9.48;8.50;;;;;;;;;;5091671;28;20091;-54
2021/06/23 09:25:32;;;;;;;9.88;7.75;;;;;;;;;;5092245;28;20020;-55
2021/06/23 09:27:58;;;;;;;9.52;7.95;;;;;;;;;;5073799;28;20028;-55
2021/06/23 09:30:34;;;;;;;10.52;8.10;;;;;;;;;;5085548;28;20085;-53
2021/06/23 09:33:09;;;;;;;8.63;7.72;;;;;;;;;;5091157;28;20016;-55
2021/06/23 09:35:35;;;;;;;8.82;7.93;;;;;;;;;;5084366;28;20430;-53
2021/06/23 09:38:00;;;;;;;9.35;7.95;;;;;;;;;;5071997;28;20029;-56
2021/06/23 09:40:29;;;;;;;9.15;7.65;;;;;;;;;;5076794;28;20016;-56
2021/06/23 09:42:59;;;;;;;9.57;8.05;;;;;;;;;;5081778;28;20050;-54
2021/06/23 09:45:25;;;;;;;8.50;7.72;;;;;;;;;;5071800;28;20100;-56
2021/06/23 09:47:57;;;;;;;8.60;7.68;;;;;;;;;;5078090;28;20027;-56
2021/06/23 09:50:23;;;;;;;9.35;8.55;;;;;;;;;;5089674;28;20170;-56
2021/06/23 09:52:58;;;;;;;7.82;7.13;;;;;;;;;;5083837;28;20023;-55
2021/06/23 09:55:37;;;;;;;10.02;7.40;;;;;;;;;;5078100;28;20032;-55
2021/06/23 09:58:24;;;;;;;9.52;7.45;;;;;;;;;;5094042;28;20357;-55
2021/06/23 10:01:06;;;;;;;8.88;8.05;;;;;;;;;;5072677;28;20103;-54
2021/06/23 10:03:34;;;;;;;11.50;8.18;;;;;;;;;;5075553;28;20077;-55
2021/06/23 10:06:18;;;;;;;9.10;6.60;;;;;;;;;;5091254;28;20059;-56
2021/06/23 10:08:44;;;;;;;8.80;7.10;;;;;;;;;;5076265;28;20032;-54
2021/06/23 10:11:09;;;;;;;7.90;7.07;;;;;;;;;;5082396;28;20021;-55
2021/06/23 10:13:34;;;;;;;9.97;7.17;;;;;;;;;;5075102;28;20626;-54
2021/06/23 10:15:59;;;;;;;7.30;6.60;;;;;;;;;;5083337;28;20764;-56
2021/06/23 10:18:25;;;;;;;8.68;7.80;;;;;;;;;;5087567;28;20383;-56
2021/06/23 10:20:53;;;;;;;9.35;8.55;;;;;;;;;;5075546;28;20101;-55
2021/06/23 10:23:19;;;;;;;8.18;6.85;;;;;;;;;;5092704;28;20008;-57
2021/06/23 10:25:44;;;;;;;7.22;6.63;;;;;;;;;;5078279;28;20012;-56
2021/06/23 10:28:10;;;;;;;6.55;5.72;;;;;;;;;;5094534;28;20032;-56
2021/06/23 10:30:36;;;;;;;6.85;6.28;;;;;;;;;;5077373;28;20399;-55
2021/06/23 10:33:02;;;;;;;7.75;6.97;;;;;;;;;;5076060;28;20110;-55
2021/06/23 10:35:27;;;;;;;7.72;7.03;;;;;;;;;;5079477;28;20021;-53
2021/06/23 10:37:53;;;;;;;8.30;7.40;;;;;;;;;;5075213;28;20394;-56
2021/06/23 10:40:19;;;;;;;8.20;7.00;;;;;;;;;;5080025;28;20364;-55
2021/06/23 10:42:44;;;;;;;8.85;8.05;;;;;;;;;;5091635;28;20054;-56
2021/06/23 10:45:10;;;;;;;8.40;7.60;;;;;;;;;;5086614;28;20165;-55
2021/06/23 10:47:38;;;;;;;7.03;6.32;;;;;;;;;;5076104;28;20036;-57
2021/06/23 10:50:03;;;;;;;8.95;8.05;;;;;;;;;;5074466;28;20036;-55
2021/06/23 10:52:30;;;;;;;6.95;6.35;;;;;;;;;;5079091;28;20387;-55
2021/06/23 10:55:00;;;;;;;7.22;6.53;;;;;;;;;;5084636;28;20383;-55
2021/06/23 10:57:29;;;;;;;6.13;5.53;;;;;;;;;;5090135;28;20024;-53
2021/06/23 10:59:55;;;;;;;5.30;4.90;;;;;;;;;;5085614;28;20031;-55
2021/06/23 11:02:27;;;;;;;7.78;6.63;;;;;;;;;;5085938;28;20507;-55
2021/06/23 11:05:01;;;;;;;7.22;6.63;;;;;;;;;;5094339;28;20073;-54
2021/06/23 11:07:33;;;;;;;7.00;6.40;;;;;;;;;;5076595;28;20103;-54
2021/06/23 11:10:13;;;;;;;7.22;6.20;;;;;;;;;;5082398;28;20017;-53
2021/06/23 11:12:52;;;;;;;7.28;6.70;;;;;;;;;;5079830;28;20021;-55
2021/06/23 11:15:45;;;;;;;7.65;6.32;;;;;;;;;;5075499;28;20388;-57
2021/06/23 11:18:24;;;;;;;7.57;6.88;;;;;;;;;;5080558;28;20111;-56
2021/06/23 11:20:52;;;;;;;7.88;7.18;;;;;;;;;;5077745;28;20044;-57
2021/06/23 11:23:36;;;;;;;9.27;8.55;;;;;;;;;;5073879;28;20060;-55
2021/06/23 11:26:02;;;;;;;7.85;7.15;;;;;;;;;;5089023;28;20024;-55
2021/06/23 11:28:27;;;;;;;8.32;7.53;;;;;;;;;;5079778;28;20020;-56
2021/06/23 11:30:53;;;;;;;7.07;6.38;;;;;;;;;;5082480;28;20004;-56
2021/06/23 11:33:27;;;;;;;7.47;6.78;;;;;;;;;;5082482;28;20100;-53
2021/06/23 11:35:53;;;;;;;9.90;9.00;;;;;;;;;;5082959;28;20172;-55
2021/06/23 11:38:18;;;;;;;10.05;9.10;;;;;;;;;;5084881;28;20113;-55
2021/06/23 11:40:44;;;;;;;8.52;7.72;;;;;;;;;;5083479;28;20016;-54
2021/06/23 11:43:09;;;;;;;8.05;7.25;;;;;;;;;;5084524;28;20113;-56
2021/06/23 11:45:34;;;;;;;8.93;8.13;;;;;;;;;;5083097;28;20494;-55
2021/06/23 11:47:59;;;;;;;7.35;6.78;;;;;;;;;;5088773;28;20297;-55
2021/06/23 11:50:25;;;;;;;7.75;6.70;;;;;;;;;;5085731;28;20439;-55
2021/06/23 11:52:50;;;;;;;8.98;6.22;;;;;;;;;;5075541;28;20086;-54
2021/06/23 11:55:23;;;;;;;6.53;5.93;;;;;;;;;;5084417;28;20111;-52
2021/06/23 11:57:49;;;;;;;7.57;6.88;;;;;;;;;;5080729;28;20442;-55
2021/06/23 12:00:14;;;;;;;7.85;7.05;;;;;;;;;;5083354;28;20047;-56
2021/06/23 12:02:40;;;;;;;6.90;6.30;;;;;;;;;;5078319;28;20044;-56
2021/06/23 12:05:05;;;;;;;7.97;7.37;;;;;;;;;;5091559;28;20032;-56
2021/06/23 12:07:30;;;;;;;6.85;6.35;;;;;;;;;;5080438;28;20297;-55
2021/06/23 12:09:56;;;;;;;8.23;7.43;;;;;;;;;;5090734;28;20024;-56
2021/06/23 12:12:21;;;;;;;8.00;7.30;;;;;;;;;;5090333;28;20028;-56
2021/06/23 12:14:46;;;;;;;7.72;7.03;;;;;;;;;;5088946;28;20081;-55
2021/06/23 12:17:11;;;;;;;7.53;6.93;;;;;;;;;;5086730;28;20020;-54
2021/06/23 12:19:38;;;;;;;7.43;6.83;;;;;;;;;;5090002;28;20266;-55
2021/06/23 12:22:04;;;;;;;8.65;7.95;;;;;;;;;;5083998;28;20294;-55
2021/06/23 12:24:29;;;;;;;8.05;7.35;;;;;;;;;;5082228;28;20039;-55
2021/06/23 12:26:54;;;;;;;7.10;6.50;;;;;;;;;;5089957;28;20467;-53
2021/06/23 12:29:19;;;;;;;7.70;7.10;;;;;;;;;;5090483;28;20095;-55
2021/06/23 12:31:45;;;;;;;7.43;6.72;;;;;;;;;;5085493;28;20153;-56
2021/06/23 12:34:10;;;;;;;6.75;6.15;;;;;;;;;;5092138;28;20028;-54
2021/06/23 12:36:36;;;;;;;8.05;7.28;;;;;;;;;;5091329;28;20024;-56
2021/06/23 12:39:02;;;;;;;8.55;7.63;;;;;;;;;;5077406;28;20031;-54
2021/06/23 12:41:27;;;;;;;10.05;9.15;;;;;;;;;;5076229;28;20024;-53
2021/06/23 12:43:52;;;;;;;10.40;8.60;;;;;;;;;;5089816;28;20145;-52
2021/06/23 12:46:18;;;;;;;8.07;7.30;;;;;;;;;;5089830;28;20266;-56
2021/06/23 12:48:43;;;;;;;8.60;7.93;;;;;;;;;;5091835;28;20052;-55
2021/06/23 12:51:08;;;;;;;6.90;6.30;;;;;;;;;;5077941;28;20408;-53
2021/06/23 12:53:33;;;;;;;7.72;6.55;;;;;;;;;;5080078;28;20078;-54
2021/06/23 12:55:59;;;;;;;8.30;7.70;;;;;;;;;;5090485;28;20031;-56
2021/06/23 12:58:24;;;;;;;7.22;6.65;;;;;;;;;;5092192;28;20020;-54
2021/06/23 13:00:49;;;;;;;7.77;7.17;;;;;;;;;;5081265;28;20023;-55
2021/06/23 13:03:16;;;;;;;6.22;5.65;;;;;;;;;;5072139;28;20349;-54
2021/06/23 13:05:42;;;;;;;5.55;5.15;;;;;;;;;;5071666;28;20020;-53
2021/06/23 13:08:07;;;;;;;5.32;4.93;;;;;;;;;;5082601;28;20103;-55
2021/06/23 13:10:33;;;;;;;6.20;5.75;;;;;;;;;;5084637;28;20078;-54
2021/06/23 13:12:58;;;;;;;5.55;5.07;;;;;;;;;;5087890;28;20036;-53
2021/06/23 13:15:24;;;;;;;5.40;5.00;;;;;;;;;;5086510;28;20502;-54
2021/06/23 13:17:49;;;;;;;5.55;5.05;;;;;;;;;;5083988;28;20471;-54
2021/06/23 13:20:20;;;;;;;5.05;4.65;;;;;;;;;;5085241;28;20081;-57
2021/06/23 13:22:45;;;;;;;6.25;5.75;;;;;;;;;;5090204;28;20015;-56
2021/06/23 13:25:11;;;;;;;5.20;4.83;;;;;;;;;;5088162;28;20093;-55
2021/06/23 13:27:36;;;;;;;5.43;5.03;;;;;;;;;;5086759;28;20393;-57
2021/06/23 13:30:02;;;;;;;5.30;4.93;;;;;;;;;;5078434;28;20012;-56
2021/06/23 13:32:27;;;;;;;6.78;6.28;;;;;;;;;;5082790;28;20286;-52
2021/06/23 13:34:52;;;;;;;7.10;6.60;;;;;;;;;;5085519;28;20480;-57
2021/06/23 13:37:17;;;;;;;6.57;6.07;;;;;;;;;;5076105;28;20784;-54
2021/06/23 13:39:43;;;;;;;9.35;8.63;;;;;;;;;;5075874;28;20027;-56
2021/06/23 13:42:08;;;;;;;10.43;7.10;;;;;;;;;;5074841;28;20529;-53
2021/06/23 13:44:33;;;;;;;9.70;8.85;;;;;;;;;;5091876;28;20027;-53
2021/06/23 13:46:58;;;;;;;8.40;7.70;;;;;;;;;;5076719;28;20025;-55
2021/06/23 13:49:24;;;;;;;7.80;7.18;;;;;;;;;;5076258;28;20619;-54
2021/06/23 13:51:49;;;;;;;9.43;8.63;;;;;;;;;;5076409;28;20038;-55
2021/06/23 13:54:14;;;;;;;7.90;7.18;;;;;;;;;;5090897;28;20027;-56
2021/06/23 13:56:40;;;;;;;6.97;6.30;;;;;;;;;;5095561;28;20078;-55
2021/06/23 13:59:05;;;;;;;6.65;6.15;;;;;;;;;;5095432;28;20258;-54
2021/06/23 14:01:30;;;;;;;6.43;5.93;;;;;;;;;;5091478;28;20525;-54
2021/06/23 14:03:56;;;;;;;6.35;5.85;;;;;;;;;;5094882;28;20494;-55
2021/06/23 14:06:21;;;;;;;6.75;5.97;;;;;;;;;;5085554;28;20479;-54
2021/06/23 14:08:47;;;;;;;7.25;6.13;;;;;;;;;;5095099;28;20023;-55
2021/06/23 14:11:12;;;;;;;7.28;6.57;;;;;;;;;;5079511;28;20419;-54
2021/06/23 14:13:37;;;;;;;7.32;6.57;;;;;;;;;;5086221;28;20099;-55
2021/06/23 14:16:03;;;;;;;7.40;6.72;;;;;;;;;;5087854;28;20112;-54
2021/06/23 14:18:29;;;;;;;8.43;7.63;;;;;;;;;;5085722;28;20025;-54
2021/06/23 14:20:55;;;;;;;6.65;6.05;;;;;;;;;;5090888;28;20012;-52
2021/06/23 14:23:20;;;;;;;7.23;6.63;;;;;;;;;;5084700;28;20039;-54
2021/06/23 14:25:45;;;;;;;8.35;7.63;;;;;;;;;;5091809;28;20772;-55
2021/06/23 14:28:10;;;;;;;7.95;7.18;;;;;;;;;;5087733;28;20467;-55
2021/06/23 14:30:36;;;;;;;7.65;6.95;;;;;;;;;;5084321;28;20051;-53
2021/06/23 14:33:01;;;;;;;6.78;6.18;;;;;;;;;;5093579;28;20040;-55
2021/06/23 14:35:26;;;;;;;7.95;7.13;;;;;;;;;;5087357;28;20047;-54
2021/06/23 14:37:52;;;;;;;7.82;7.13;;;;;;;;;;5090700;28;20035;-56
2021/06/23 14:40:17;;;;;;;7.40;6.80;;;;;;;;;;5075789;28;20548;-54
2021/06/23 14:42:43;;;;;;;8.43;7.80;;;;;;;;;;5084957;28;20027;-56
2021/06/23 14:45:08;;;;;;;9.10;8.30;;;;;;;;;;5085685;28;20024;-56
2021/06/23 14:47:34;;;;;;;8.18;7.45;;;;;;;;;;5081778;28;20069;-53
2021/06/23 14:49:59;;;;;;;9.45;8.65;;;;;;;;;;5087312;28;20470;-55
2021/06/23 14:52:24;;;;;;;9.02;8.30;;;;;;;;;;5086853;28;20456;-55
2021/06/23 14:54:49;;;;;;;9.77;8.93;;;;;;;;;;5090813;28;20024;-55